Time;durP1;ratioP1;P1;durP2;ratioP2;P2;SDS_P1;SDS_P2;PMS_P1;PMS_P2;Temp;Humidity;BMP_temperature;BMP_pressure;BME280_temperature;BME280_humidity;BME280_pressure;Samples;Min_cycle;Max_cycle;Signal;HPM_P1;HPM_P2
2023/03/07 00:01:01;;;;;;;45.83;19.70;;;-0.40;99.90;;;;;;4789524;29;20789;-78
2023/03/07 00:03:28;;;;;;;40.70;18.57;;;-0.50;99.90;;;;;;4805515;29;20299;-78
2023/03/07 00:06:07;;;;;;;43.60;18.97;;;-0.60;99.90;;;;;;4789576;29;20561;-77
2023/03/07 00:08:35;;;;;;;45.40;19.20;;;-0.60;99.90;;;;;;4793345;29;20743;-76
2023/03/07 00:11:07;;;;;;;44.47;19.33;;;-0.60;99.90;;;;;;4805768;29;20238;-78
2023/03/07 00:13:36;;;;;;;44.13;18.63;;;-0.70;99.90;;;;;;4805635;29;20725;-79
2023/03/07 00:16:06;;;;;;;44.73;19.10;;;-0.70;99.90;;;;;;4804938;29;20203;-76
2023/03/07 00:18:34;;;;;;;45.60;20.07;;;-0.60;99.90;;;;;;4788698;29;20242;-79
2023/03/07 00:21:07;;;;;;;44.77;19.77;;;-0.70;99.90;;;;;;4789171;29;20211;-76
2023/03/07 00:23:36;;;;;;;48.60;20.53;;;-0.80;99.90;;;;;;4805011;29;20297;-78
2023/03/07 00:26:18;;;;;;;46.87;18.93;;;-0.90;99.90;;;;;;4788690;29;20714;-79
2023/03/07 00:28:47;;;;;;;40.83;17.97;;;-1.00;99.90;;;;;;4788840;29;20212;-80
2023/03/07 00:31:14;;;;;;;44.30;18.70;;;-1.00;99.90;;;;;;4805358;29;20320;-78
2023/03/07 00:33:42;;;;;;;44.50;18.50;;;-1.10;99.90;;;;;;4788820;29;20713;-80
2023/03/07 00:36:15;;;;;;;39.87;17.70;;;-1.10;99.90;;;;;;4788558;29;20209;-77
2023/03/07 00:38:43;;;;;;;41.80;17.80;;;-1.10;99.90;;;;;;4788953;29;20241;-77
2023/03/07 00:41:13;;;;;;;40.90;17.97;;;-1.10;99.90;;;;;;4789029;29;20218;-78
2023/03/07 00:43:42;;;;;;;43.30;18.17;;;-1.00;99.90;;;;;;4788774;29;20552;-79
2023/03/07 00:46:10;;;;;;;40.40;18.07;;;-1.00;99.90;;;;;;4789001;29;20710;-80
2023/03/07 00:48:38;;;;;;;43.77;18.10;;;-0.90;99.90;;;;;;4805274;29;20204;-80
2023/03/07 00:51:07;;;;;;;45.27;18.83;;;-0.90;99.90;;;;;;4788981;29;20210;-81
2023/03/07 00:53:35;;;;;;;44.00;18.80;;;-0.80;99.90;;;;;;4804819;29;20361;-79
2023/03/07 00:56:08;;;;;;;43.40;19.37;;;-0.80;99.90;;;;;;4788860;29;20568;-79
2023/03/07 00:58:35;;;;;;;44.60;19.20;;;-0.80;99.90;;;;;;4804937;29;20255;-79
2023/03/07 01:01:05;;;;;;;47.60;19.27;;;-0.80;99.90;;;;;;4773605;29;20234;-79
2023/03/07 01:03:33;;;;;;;48.90;20.53;;;-0.80;99.90;;;;;;4788729;29;20588;-80
2023/03/07 01:06:08;;;;;;;46.43;20.23;;;-0.70;99.90;;;;;;4788552;29;20207;-81
2023/03/07 01:08:35;;;;;;;47.13;19.83;;;-0.60;99.90;;;;;;4805257;29;20197;-79
2023/03/07 01:11:04;;;;;;;48.20;20.33;;;-0.70;99.90;;;;;;4788530;29;20303;-80
2023/03/07 01:13:33;;;;;;;45.83;20.07;;;-0.60;99.90;;;;;;4759226;29;20219;-79
2023/03/07 01:16:21;;;;;;;49.87;21.03;;;-0.70;99.90;;;;;;4788687;29;20211;-80
2023/03/07 01:18:51;;;;;;;45.17;19.57;;;-0.60;99.90;;;;;;4788601;29;20210;-81
2023/03/07 01:21:24;;;;;;;48.30;20.37;;;-0.70;99.90;;;;;;4788980;29;20202;-80
2023/03/07 01:23:54;;;;;;;49.63;20.37;;;-0.70;99.90;;;;;;4788607;29;20206;-81
2023/03/07 01:26:26;;;;;;;47.73;20.53;;;-0.60;99.90;;;;;;4804671;29;20713;-81
2023/03/07 01:28:55;;;;;;;51.00;21.77;;;-0.80;99.90;;;;;;4789639;29;20204;-81
2023/03/07 01:31:24;;;;;;;46.57;20.63;;;-0.80;99.90;;;;;;4808162;29;20211;-79
2023/03/07 01:33:52;;;;;;;46.80;20.73;;;-0.80;99.90;;;;;;4808220;29;20220;-79
2023/03/07 01:36:28;;;;;;;49.27;21.20;;;-0.90;99.90;;;;;;4807951;29;20218;-81
2023/03/07 01:39:03;;;;;;;49.37;20.67;;;-0.90;99.90;;;;;;4808284;29;20221;-82
2023/03/07 01:41:32;;;;;;;49.63;21.67;;;-0.90;99.90;;;;;;4791737;29;20225;-78
2023/03/07 01:44:06;;;;;;;49.77;21.57;;;-0.90;99.90;;;;;;4791944;29;20216;-79
2023/03/07 01:46:43;;;;;;;48.33;20.67;;;-0.80;99.90;;;;;;4791963;29;20209;-80
2023/03/07 01:49:27;;;;;;;47.30;21.23;;;-0.90;99.90;;;;;;4807915;29;20199;-78
2023/03/07 01:52:10;;;;;;;50.20;21.13;;;-0.90;99.90;;;;;;4791222;29;20555;-79
2023/03/07 01:54:41;;;;;;;47.97;21.37;;;-0.90;99.90;;;;;;4791068;29;20715;-78
2023/03/07 01:57:08;;;;;;;48.87;21.27;;;-0.90;99.90;;;;;;4776950;29;20206;-79
2023/03/07 01:59:41;;;;;;;47.50;21.00;;;-1.00;99.90;;;;;;4807620;29;20638;-78
2023/03/07 02:02:16;;;;;;;48.17;21.33;;;-1.00;99.90;;;;;;4791580;29;20241;-79
2023/03/07 02:05:01;;;;;;;50.37;21.97;;;-1.10;99.90;;;;;;4791182;29;20261;-79
2023/03/07 02:07:32;;;;;;;48.80;21.90;;;-1.20;99.90;;;;;;4791184;29;20246;-79
2023/03/07 02:10:00;;;;;;;51.13;20.83;;;-1.30;99.90;;;;;;4787206;30;20208;-79
2023/03/07 02:12:27;;;;;;;46.43;20.53;;;-1.30;99.90;;;;;;4773128;30;20242;-79
2023/03/07 02:14:54;;;;;;;46.83;19.90;;;-1.40;99.90;;;;;;4773709;30;20324;-79
2023/03/07 02:17:21;;;;;;;48.37;20.33;;;-1.40;99.90;;;;;;4773900;30;20296;-81
2023/03/07 02:19:57;;;;;;;48.67;20.80;;;-1.50;99.90;;;;;;4791644;30;20222;-78
2023/03/07 02:22:24;;;;;;;50.60;20.80;;;-1.50;99.90;;;;;;4792694;30;20201;-80
2023/03/07 02:25:13;;;;;;;51.10;21.53;;;-1.50;99.90;;;;;;4798337;29;20201;-78
2023/03/07 02:27:41;;;;;;;47.97;20.40;;;-1.50;99.90;;;;;;4787268;30;20305;-78
2023/03/07 02:30:09;;;;;;;51.10;22.13;;;-1.50;99.90;;;;;;4807436;29;20207;-79
2023/03/07 02:32:36;;;;;;;52.30;21.97;;;-1.50;99.90;;;;;;4796721;30;20648;-80
2023/03/07 02:35:14;;;;;;;48.83;20.73;;;-1.50;99.90;;;;;;4790078;29;20225;-80
2023/03/07 02:37:44;;;;;;;52.00;21.63;;;-1.50;99.90;;;;;;4772751;30;20568;-80
2023/03/07 02:40:15;;;;;;;54.27;21.77;;;-1.60;99.90;;;;;;4757517;29;20211;-77
2023/03/07 02:42:43;;;;;;;52.33;21.73;;;-1.60;99.90;;;;;;4772748;30;20208;-79
2023/03/07 02:45:15;;;;;;;51.60;20.93;;;-1.70;99.90;;;;;;4772424;30;20210;-80
2023/03/07 02:47:42;;;;;;;53.07;22.00;;;-1.70;99.90;;;;;;4772973;30;20207;-77
2023/03/07 02:50:11;;;;;;;51.63;21.83;;;-1.80;99.90;;;;;;4772366;30;20300;-78
2023/03/07 02:52:38;;;;;;;54.47;23.10;;;-1.80;99.90;;;;;;4772891;30;20255;-78
2023/03/07 02:55:08;;;;;;;53.57;22.70;;;-1.90;99.90;;;;;;4788829;30;20563;-79
2023/03/07 02:57:35;;;;;;;55.63;23.30;;;-2.00;99.90;;;;;;4772241;30;20206;-80
2023/03/07 03:00:06;;;;;;;55.17;23.50;;;-2.00;99.90;;;;;;4772396;30;20574;-80
2023/03/07 03:02:35;;;;;;;51.63;22.70;;;-2.00;99.90;;;;;;4772569;30;20616;-81
2023/03/07 03:05:02;;;;;;;54.57;22.73;;;-1.90;99.90;;;;;;4788911;29;20211;-79
2023/03/07 03:07:29;;;;;;;57.10;23.90;;;-1.90;99.90;;;;;;4772145;30;20209;-79
2023/03/07 03:09:56;;;;;;;59.83;24.20;;;-2.00;99.90;;;;;;4788664;30;20204;-79
2023/03/07 03:12:23;;;;;;;58.13;23.93;;;-2.10;99.90;;;;;;4757136;30;20206;-79
2023/03/07 03:14:50;;;;;;;62.60;24.57;;;-2.10;99.90;;;;;;4772106;30;20238;-79
2023/03/07 03:17:17;;;;;;;58.87;23.30;;;-2.10;99.90;;;;;;4772337;30;20208;-78
2023/03/07 03:19:44;;;;;;;59.20;24.90;;;-2.10;99.90;;;;;;4771897;30;20243;-78
2023/03/07 03:22:11;;;;;;;58.90;24.63;;;-2.20;99.90;;;;;;4772125;30;20216;-78
2023/03/07 03:24:39;;;;;;;62.10;25.37;;;-2.20;99.90;;;;;;4771713;30;20210;-78
2023/03/07 03:27:06;;;;;;;66.13;26.57;;;-2.20;99.90;;;;;;4771860;30;20257;-79
2023/03/07 03:29:33;;;;;;;67.80;26.70;;;-2.20;99.90;;;;;;4772015;30;20301;-78
2023/03/07 03:32:01;;;;;;;64.33;26.67;;;-2.30;99.90;;;;;;4772031;30;20209;-79
2023/03/07 03:34:28;;;;;;;72.67;27.50;;;-2.40;99.90;;;;;;4787781;30;20633;-77
2023/03/07 03:36:58;;;;;;;65.13;26.63;;;-2.40;99.90;;;;;;4772327;30;20242;-77
2023/03/07 03:39:25;;;;;;;74.37;27.47;;;-2.50;99.90;;;;;;4771719;30;20524;-77
2023/03/07 03:41:51;;;;;;;81.17;28.73;;;-2.50;99.90;;;;;;4788117;29;20219;-78
2023/03/07 03:44:18;;;;;;;76.07;27.83;;;-2.60;99.90;;;;;;4771828;30;20204;-79
2023/03/07 03:46:47;;;;;;;93.27;28.83;;;-2.70;99.90;;;;;;4787986;30;20257;-78
2023/03/07 03:49:15;;;;;;;78.40;27.93;;;-2.70;99.90;;;;;;4771844;30;20236;-76
2023/03/07 03:51:42;;;;;;;80.40;27.90;;;-2.80;99.90;;;;;;4787814;29;20219;-78
2023/03/07 03:54:12;;;;;;;76.20;27.77;;;-2.90;99.90;;;;;;4771026;30;20231;-79
2023/03/07 03:56:39;;;;;;;79.80;27.57;;;-2.90;99.90;;;;;;4787818;29;20606;-78
2023/03/07 03:59:06;;;;;;;78.03;27.37;;;-2.80;99.90;;;;;;4787462;30;20186;-80
2023/03/07 04:01:33;;;;;;;84.70;29.27;;;-3.00;99.90;;;;;;4771376;30;20721;-77
2023/03/07 04:04:00;;;;;;;82.17;27.73;;;-2.90;99.90;;;;;;4787698;30;20559;-80
2023/03/07 04:06:30;;;;;;;82.73;26.03;;;-3.00;99.90;;;;;;4788585;29;20208;-81
2023/03/07 04:08:57;;;;;;;77.97;25.73;;;-3.10;99.90;;;;;;4787960;29;20315;-82
2023/03/07 04:11:24;;;;;;;74.37;26.37;;;-3.10;99.90;;;;;;4756709;29;20217;-75
2023/03/07 04:13:52;;;;;;;132.73;26.53;;;-3.20;99.90;;;;;;4771302;30;20617;-81
2023/03/07 04:16:21;;;;;;;129.23;26.93;;;-3.30;99.90;;;;;;4771466;30;20204;-78
2023/03/07 04:18:51;;;;;;;89.77;26.70;;;-3.40;99.90;;;;;;4787750;29;20214;-79
2023/03/07 04:21:19;;;;;;;70.03;25.80;;;-3.30;99.90;;;;;;4771063;30;20215;-79
2023/03/07 04:23:48;;;;;;;64.73;24.70;;;-3.30;99.90;;;;;;4787569;30;20219;-79
2023/03/07 04:26:15;;;;;;;70.33;24.37;;;-3.20;99.90;;;;;;4770602;29;20261;-77
2023/03/07 04:28:43;;;;;;;68.03;24.87;;;-3.30;99.90;;;;;;4771170;30;20206;-78
2023/03/07 04:31:16;;;;;;;72.50;25.07;;;-3.30;99.90;;;;;;4771043;30;20220;-78
2023/03/07 04:33:43;;;;;;;71.07;24.77;;;-3.20;99.90;;;;;;4771048;30;20273;-77
2023/03/07 04:36:11;;;;;;;64.87;23.50;;;-3.30;99.90;;;;;;4770790;30;20228;-80
2023/03/07 04:38:39;;;;;;;69.47;24.40;;;-3.20;99.90;;;;;;4756486;30;20218;-80
2023/03/07 04:41:06;;;;;;;67.30;24.97;;;-3.20;99.90;;;;;;4787255;29;20197;-82
2023/03/07 04:43:33;;;;;;;67.03;24.43;;;-3.20;99.90;;;;;;4770872;30;20204;-79
2023/03/07 04:46:00;;;;;;;71.33;24.57;;;-3.20;99.90;;;;;;4770906;30;20303;-80
2023/03/07 04:48:27;;;;;;;79.20;24.33;;;-3.30;99.90;;;;;;4771104;30;20266;-80
2023/03/07 04:50:54;;;;;;;73.37;24.07;;;-3.30;99.90;;;;;;4770959;30;20200;-78
2023/03/07 04:53:21;;;;;;;94.00;22.40;;;-3.30;99.90;;;;;;4770677;30;20684;-79
2023/03/07 04:55:48;;;;;;;63.80;22.60;;;-3.20;99.90;;;;;;4770706;30;20264;-78
2023/03/07 04:58:16;;;;;;;107.83;24.80;;;-3.50;99.90;;;;;;4756114;30;20208;-78
2023/03/07 05:00:44;;;;;;;77.23;25.50;;;-3.60;99.90;;;;;;4770869;30;20248;-79
2023/03/07 05:03:13;;;;;;;63.90;22.90;;;-3.40;99.90;;;;;;4771192;29;20201;-77
2023/03/07 05:05:40;;;;;;;69.93;25.30;;;-3.30;99.90;;;;;;4790308;30;20204;-79
2023/03/07 05:08:07;;;;;;;64.20;23.30;;;-3.30;99.90;;;;;;4790647;30;20189;-77
2023/03/07 05:10:35;;;;;;;84.60;22.10;;;-3.30;99.90;;;;;;4774062;30;20211;-78
2023/03/07 05:13:02;;;;;;;70.63;22.27;;;-3.40;99.90;;;;;;4773969;30;20570;-77
2023/03/07 05:15:29;;;;;;;77.57;22.87;;;-3.50;99.90;;;;;;4773987;30;20577;-81
2023/03/07 05:17:56;;;;;;;60.43;22.47;;;-3.60;99.90;;;;;;4790193;30;20207;-79
2023/03/07 05:20:24;;;;;;;63.23;22.80;;;-3.60;99.90;;;;;;4774125;30;20210;-78
2023/03/07 05:22:51;;;;;;;69.00;22.33;;;-3.60;99.90;;;;;;4774062;30;20207;-80
2023/03/07 05:25:18;;;;;;;58.03;22.30;;;-3.40;99.90;;;;;;4773905;30;20224;-76
2023/03/07 05:27:45;;;;;;;73.20;22.03;;;-3.40;99.90;;;;;;4773860;30;20216;-76
2023/03/07 05:30:12;;;;;;;85.77;22.83;;;-3.40;99.90;;;;;;4773920;30;20209;-77
2023/03/07 05:32:40;;;;;;;79.77;23.57;;;-3.40;99.90;;;;;;4789909;30;20201;-78
2023/03/07 05:35:09;;;;;;;76.77;23.70;;;-3.50;99.90;;;;;;4773563;30;20699;-76
2023/03/07 05:37:36;;;;;;;70.50;23.23;;;-3.50;99.90;;;;;;4773871;30;20232;-76
2023/03/07 05:40:10;;;;;;;75.47;24.37;;;-3.40;99.90;;;;;;4774051;30;20200;-78
2023/03/07 05:42:36;;;;;;;90.03;24.63;;;-3.40;99.90;;;;;;4759172;30;20200;-77
2023/03/07 05:45:04;;;;;;;68.87;23.83;;;-3.40;99.90;;;;;;4773275;30;20591;-77
2023/03/07 05:47:31;;;;;;;84.23;25.00;;;-3.40;99.90;;;;;;4759077;30;20216;-79
2023/03/07 05:49:58;;;;;;;72.10;24.00;;;-3.40;99.90;;;;;;4789693;30;20239;-78
2023/03/07 05:52:26;;;;;;;147.83;26.60;;;-3.40;99.90;;;;;;4789732;30;20261;-78
2023/03/07 05:54:53;;;;;;;72.87;24.17;;;-3.40;99.90;;;;;;4789920;29;20217;-77
2023/03/07 05:57:21;;;;;;;70.83;24.50;;;-3.30;99.90;;;;;;4773399;30;20206;-79
2023/03/07 05:59:48;;;;;;;82.67;24.03;;;-3.10;99.90;;;;;;4789643;30;20216;-79
2023/03/07 06:02:15;;;;;;;95.23;23.63;;;-3.20;99.90;;;;;;4770733;30;20251;-82
2023/03/07 06:04:42;;;;;;;68.17;23.00;;;-3.30;99.90;;;;;;4773383;30;20213;-79
2023/03/07 06:07:10;;;;;;;68.63;24.10;;;-3.30;99.90;;;;;;4773579;30;20208;-82
2023/03/07 06:09:37;;;;;;;65.03;22.40;;;-3.10;99.90;;;;;;4773609;30;20232;-80
2023/03/07 06:12:09;;;;;;;91.27;24.33;;;-3.10;99.90;;;;;;4773517;30;20213;-80
2023/03/07 06:14:36;;;;;;;68.67;23.80;;;-3.20;99.90;;;;;;4789866;29;20288;-84
2023/03/07 06:17:03;;;;;;;73.03;24.77;;;-3.10;99.90;;;;;;4772639;30;20295;-78
2023/03/07 06:19:30;;;;;;;75.57;25.40;;;-3.10;99.90;;;;;;4773312;30;20295;-75
2023/03/07 06:21:57;;;;;;;85.43;29.00;;;-3.10;99.90;;;;;;4773753;30;20223;-79
2023/03/07 06:24:30;;;;;;;90.67;30.13;;;-3.00;99.90;;;;;;4773004;30;20210;-80
2023/03/07 06:26:58;;;;;;;94.30;31.30;;;-3.00;99.90;;;;;;4789073;29;20279;-78
2023/03/07 06:29:25;;;;;;;93.23;31.23;;;-3.00;99.90;;;;;;4772955;30;20209;-81
2023/03/07 06:31:52;;;;;;;80.40;29.23;;;-3.00;99.90;;;;;;4773072;30;20214;-80
2023/03/07 06:34:19;;;;;;;82.83;28.80;;;-3.10;99.90;;;;;;4789093;30;20204;-80
2023/03/07 06:36:47;;;;;;;75.10;26.37;;;-3.00;99.90;;;;;;4788871;30;20826;-78
2023/03/07 06:39:19;;;;;;;75.67;26.63;;;-2.90;99.90;;;;;;4773080;30;20203;-78
2023/03/07 06:41:50;;;;;;;72.83;24.93;;;-2.80;99.90;;;;;;4791161;29;20244;-77
2023/03/07 06:44:17;;;;;;;73.63;24.63;;;-2.50;99.90;;;;;;4791036;29;20209;-80
2023/03/07 06:46:44;;;;;;;64.97;24.63;;;-2.30;99.90;;;;;;4773037;30;20208;-77
2023/03/07 06:49:11;;;;;;;62.87;24.70;;;-2.20;99.90;;;;;;4773039;30;20208;-76
2023/03/07 06:51:39;;;;;;;59.30;23.87;;;-2.00;99.90;;;;;;4773519;30;20213;-77
2023/03/07 06:54:06;;;;;;;61.20;23.53;;;-1.80;99.90;;;;;;4788837;30;20588;-76
2023/03/07 06:56:34;;;;;;;54.77;22.70;;;-1.80;99.90;;;;;;4772693;30;20232;-77
2023/03/07 06:59:01;;;;;;;57.03;21.90;;;-1.90;99.90;;;;;;4772182;30;20681;-78
2023/03/07 07:01:34;;;;;;;55.13;23.17;;;-2.00;99.90;;;;;;4772391;30;20737;-80
2023/03/07 07:04:02;;;;;;;57.20;23.03;;;-1.90;99.90;;;;;;4776403;30;20206;-81
2023/03/07 07:06:30;;;;;;;60.77;23.30;;;-1.70;99.90;;;;;;4788696;29;20588;-81
2023/03/07 07:08:57;;;;;;;55.33;22.97;;;-1.60;99.90;;;;;;4772740;30;20226;-79
2023/03/07 07:11:25;;;;;;;56.97;23.07;;;-1.60;99.90;;;;;;4772150;30;20306;-79
2023/03/07 07:13:52;;;;;;;58.57;23.60;;;-1.50;99.90;;;;;;4772339;30;20213;-78
2023/03/07 07:16:22;;;;;;;56.70;23.17;;;-1.40;99.90;;;;;;4772022;30;20243;-80
2023/03/07 07:18:50;;;;;;;59.80;23.17;;;-1.20;99.90;;;;;;4769444;30;20214;-77
2023/03/07 07:21:18;;;;;;;51.33;21.77;;;-1.10;99.90;;;;;;4763306;30;20711;-77
2023/03/07 07:23:45;;;;;;;52.53;22.73;;;-1.20;99.90;;;;;;4761747;30;20244;-75
2023/03/07 07:26:14;;;;;;;51.97;21.60;;;-1.00;99.90;;;;;;4770103;30;20224;-76
2023/03/07 07:28:41;;;;;;;50.70;22.40;;;-0.90;99.90;;;;;;4769672;30;20207;-80
2023/03/07 07:31:08;;;;;;;51.20;21.67;;;-0.80;99.90;;;;;;4772753;30;20233;-79
2023/03/07 07:33:35;;;;;;;46.87;21.27;;;-0.80;99.90;;;;;;4771673;30;20207;-80
2023/03/07 07:36:02;;;;;;;52.27;22.47;;;-0.80;99.90;;;;;;4772575;30;20217;-81
2023/03/07 07:38:29;;;;;;;46.83;19.93;;;-0.60;99.90;;;;;;4772252;30;20243;-82
2023/03/07 07:40:56;;;;;;;45.30;18.57;;;-0.30;99.90;;;;;;4787920;30;20218;-80
2023/03/07 07:43:23;;;;;;;39.40;17.53;;;-0.40;99.90;;;;;;4771893;30;20248;-80
2023/03/07 07:45:50;;;;;;;39.83;17.20;;;-0.50;99.90;;;;;;4771612;30;20216;-76
2023/03/07 07:48:17;;;;;;;38.33;17.03;;;-0.40;99.90;;;;;;4786810;30;20213;-80
2023/03/07 07:50:44;;;;;;;37.27;16.03;;;-0.40;99.90;;;;;;4785838;30;20219;-77
2023/03/07 07:53:12;;;;;;;41.00;17.13;;;-0.50;99.90;;;;;;4768927;30;20201;-83
2023/03/07 07:55:39;;;;;;;38.40;16.47;;;-0.50;99.90;;;;;;4771386;30;20708;-80
2023/03/07 07:58:06;;;;;;;37.77;15.70;;;-0.40;99.90;;;;;;4787784;30;20238;-81
2023/03/07 08:00:33;;;;;;;38.27;16.33;;;-0.50;99.90;;;;;;4790515;29;20276;-77
2023/03/07 08:03:01;;;;;;;34.90;15.83;;;-0.50;99.90;;;;;;4789460;29;20284;-76
2023/03/07 08:05:30;;;;;;;37.00;16.47;;;-0.40;99.90;;;;;;4789390;29;20295;-81
2023/03/07 08:07:58;;;;;;;33.83;15.37;;;-0.30;99.90;;;;;;4789434;29;20300;-77
2023/03/07 08:10:25;;;;;;;36.00;15.77;;;-0.20;99.90;;;;;;4805671;29;20249;-81
2023/03/07 08:12:52;;;;;;;35.90;16.00;;;0.00;99.90;;;;;;4775376;29;20751;-80
2023/03/07 08:15:22;;;;;;;34.60;15.63;;;0.10;99.90;;;;;;4789603;29;20234;-80
2023/03/07 08:17:51;;;;;;;33.27;14.97;;;0.30;99.90;;;;;;4790888;29;20268;-82
2023/03/07 08:20:21;;;;;;;33.30;15.40;;;0.30;99.90;;;;;;4795829;29;20214;-80
2023/03/07 08:22:49;;;;;;;35.70;15.33;;;0.60;99.90;;;;;;4800209;29;20199;-80
2023/03/07 08:25:20;;;;;;;32.33;14.73;;;1.20;99.90;;;;;;4813396;29;20656;-77
2023/03/07 08:27:51;;;;;;;30.23;14.23;;;1.40;99.90;;;;;;4792814;29;20218;-80
2023/03/07 08:30:23;;;;;;;36.63;15.27;;;1.50;99.90;;;;;;4811274;29;20203;-81
2023/03/07 08:32:53;;;;;;;29.83;14.30;;;1.70;99.90;;;;;;4792051;29;20217;-75
2023/03/07 08:35:20;;;;;;;30.27;14.40;;;2.00;99.90;;;;;;4791073;29;20230;-82
2023/03/07 08:37:50;;;;;;;31.90;14.50;;;2.20;99.90;;;;;;4790486;29;20570;-82
2023/03/07 08:40:19;;;;;;;33.07;14.23;;;2.40;99.90;;;;;;4806779;29;20218;-79
2023/03/07 08:42:46;;;;;;;31.80;15.17;;;2.60;99.90;;;;;;4816059;29;20215;-84
2023/03/07 08:45:14;;;;;;;30.60;14.77;;;2.50;99.90;;;;;;4807290;29;20334;-76
2023/03/07 08:47:41;;;;;;;34.90;15.17;;;2.50;99.90;;;;;;4805705;29;20287;-78
2023/03/07 08:50:08;;;;;;;31.77;14.80;;;2.60;99.90;;;;;;4789231;29;20224;-77
2023/03/07 08:52:35;;;;;;;33.13;15.27;;;2.70;99.90;;;;;;4789082;29;20216;-78
2023/03/07 08:55:02;;;;;;;33.50;15.37;;;2.90;99.90;;;;;;4803770;29;20207;-78
2023/03/07 08:57:30;;;;;;;30.13;14.97;;;3.40;99.90;;;;;;4789067;29;20207;-80
2023/03/07 08:59:57;;;;;;;30.20;14.97;;;3.30;99.90;;;;;;4804850;29;20287;-79
2023/03/07 09:02:23;;;;;;;33.67;16.00;;;3.30;99.90;;;;;;4788882;29;20239;-74
2023/03/07 09:04:57;;;;;;;31.60;15.63;;;3.60;99.90;;;;;;4804966;29;20204;-80
2023/03/07 09:07:26;;;;;;;33.87;15.33;;;3.80;99.90;;;;;;4788723;29;20223;-72
2023/03/07 09:09:53;;;;;;;33.87;16.17;;;3.60;99.90;;;;;;4788837;29;20228;-74
2023/03/07 09:12:23;;;;;;;33.63;16.27;;;3.70;99.90;;;;;;4805052;29;20565;-77
2023/03/07 09:14:54;;;;;;;35.53;16.63;;;3.80;99.90;;;;;;4789062;29;20291;-77
2023/03/07 09:17:21;;;;;;;33.53;16.07;;;3.70;99.90;;;;;;4804649;29;20219;-74
2023/03/07 09:19:49;;;;;;;33.80;16.53;;;3.70;99.90;;;;;;4788715;29;20209;-76
2023/03/07 09:22:16;;;;;;;32.47;15.87;;;3.70;99.90;;;;;;4804847;29;20225;-80
2023/03/07 09:24:43;;;;;;;35.40;17.17;;;3.80;99.90;;;;;;4788866;29;20228;-75
2023/03/07 09:27:10;;;;;;;33.23;16.43;;;3.80;99.90;;;;;;4804573;29;20224;-76
2023/03/07 09:29:37;;;;;;;38.03;17.87;;;4.00;99.90;;;;;;4788570;29;20232;-73
2023/03/07 09:32:04;;;;;;;33.13;16.53;;;3.90;99.90;;;;;;4788694;29;20215;-74
2023/03/07 09:34:31;;;;;;;32.40;15.80;;;3.70;99.90;;;;;;4788196;29;20263;-75
2023/03/07 09:36:58;;;;;;;35.03;17.20;;;3.70;99.90;;;;;;4787446;29;20255;-74
2023/03/07 09:39:25;;;;;;;31.57;16.27;;;3.50;99.90;;;;;;4793877;29;20206;-74
2023/03/07 09:42:13;;;;;;;33.77;16.10;;;3.70;99.90;;;;;;4798175;29;20216;-76
2023/03/07 09:44:40;;;;;;;32.47;15.67;;;3.60;99.90;;;;;;4785563;29;20614;-78
2023/03/07 09:47:33;;;;;;;33.43;16.77;;;3.60;99.90;;;;;;4770329;30;20207;-77
2023/03/07 09:50:02;;;;;;;34.70;16.37;;;3.40;99.90;;;;;;4770569;30;20258;-74
2023/03/07 09:52:33;;;;;;;35.17;16.53;;;3.40;99.90;;;;;;4800754;29;20664;-76
2023/03/07 09:55:10;;;;;;;34.67;16.37;;;3.40;99.90;;;;;;4791273;29;20640;-70
2023/03/07 09:57:46;;;;;;;33.30;15.80;;;3.10;99.90;;;;;;4804584;29;20224;-72
2023/03/07 10:00:28;;;;;;;32.73;16.37;;;2.90;99.90;;;;;;4781628;29;20211;-71
2023/03/07 10:03:18;;;;;;;36.33;16.47;;;2.70;99.90;;;;;;4774775;29;20202;-74
2023/03/07 10:05:50;;;;;;;35.87;16.93;;;2.80;99.90;;;;;;4791569;29;20651;-74
2023/03/07 10:08:31;;;;;;;36.33;17.83;;;2.90;99.90;;;;;;4790350;29;20204;-77
2023/03/07 10:10:59;;;;;;;35.90;16.70;;;2.90;99.90;;;;;;4775204;30;20275;-75
2023/03/07 10:14:01;;;;;;;38.47;18.07;;;2.70;99.90;;;;;;4758561;30;20303;-76
2023/03/07 10:17:06;;;;;;;38.80;18.60;;;2.70;99.90;;;;;;4772888;30;20669;-77
2023/03/07 10:19:59;;;;;;;39.93;18.37;;;2.80;99.90;;;;;;4766588;24;20213;-75
2023/03/07 10:22:29;;;;;;;37.57;18.20;;;2.90;99.90;;;;;;4791572;29;20624;-78
2023/03/07 10:25:26;;;;;;;42.40;19.20;;;3.00;99.90;;;;;;4789317;29;20444;-74
2023/03/07 10:28:07;;;;;;;42.50;18.97;;;2.90;99.90;;;;;;4770241;30;20207;-77
2023/03/07 10:30:34;;;;;;;40.57;19.00;;;3.00;99.90;;;;;;4787303;30;20614;-75
2023/03/07 10:33:05;;;;;;;37.83;18.30;;;3.20;99.90;;;;;;4784761;30;20204;-76
2023/03/07 10:35:40;;;;;;;38.00;18.30;;;3.20;99.90;;;;;;4786657;30;20621;-76
2023/03/07 10:38:25;;;;;;;42.43;19.93;;;3.10;99.90;;;;;;4767104;30;20196;-76
2023/03/07 10:41:04;;;;;;;43.30;19.60;;;3.10;99.90;;;;;;4782214;29;20232;-73
2023/03/07 10:43:33;;;;;;;42.60;19.97;;;3.10;99.90;;;;;;4785931;30;20208;-72
2023/03/07 10:46:21;;;;;;;45.80;21.50;;;3.40;99.90;;;;;;4772634;30;20298;-71
2023/03/07 10:49:06;;;;;;;44.97;20.20;;;3.60;99.90;;;;;;4773143;30;20562;-73
2023/03/07 10:52:11;;;;;;;41.90;19.30;;;4.10;99.90;;;;;;4785325;30;20660;-75
2023/03/07 10:54:38;;;;;;;40.37;18.80;;;4.50;99.90;;;;;;4778353;29;20213;-74
2023/03/07 10:57:15;;;;;;;39.73;19.33;;;4.90;99.90;;;;;;4770610;30;20233;-74
2023/03/07 10:59:47;;;;;;;39.63;18.53;;;5.60;99.90;;;;;;4754514;30;20201;-81
2023/03/07 11:02:36;;;;;;;41.63;19.87;;;5.70;99.90;;;;;;4754703;30;20216;-78
2023/03/07 11:05:22;;;;;;;41.60;19.87;;;5.50;99.90;;;;;;4788439;30;20713;-79
2023/03/07 11:07:49;;;;;;;39.97;19.67;;;5.50;99.90;;;;;;4781071;30;20706;-78
2023/03/07 11:10:38;;;;;;;44.43;20.20;;;5.30;99.90;;;;;;4757214;30;20225;-78
2023/03/07 11:13:32;;;;;;;42.57;20.50;;;5.50;99.90;;;;;;4789423;30;20303;-79
2023/03/07 11:16:17;;;;;;;39.57;19.50;;;5.80;99.90;;;;;;4785422;30;20210;-77
2023/03/07 11:18:44;;;;;;;42.43;20.17;;;5.90;99.90;;;;;;4801772;29;20240;-76
2023/03/07 11:21:51;;;;;;;38.57;20.03;;;5.90;99.90;;;;;;4775920;30;20231;-79
2023/03/07 11:24:27;;;;;;;42.40;20.10;;;5.80;99.90;;;;;;4717000;30;20751;-81
2023/03/07 11:26:56;;;;;;;40.63;19.43;;;6.10;99.90;;;;;;4714472;30;20275;-81
2023/03/07 11:29:24;;;;;;;40.20;19.47;;;6.40;99.90;;;;;;4714173;30;20306;-81
2023/03/07 11:31:57;;;;;;;41.30;19.93;;;6.50;99.90;;;;;;4715850;30;20214;-77
2023/03/07 11:34:51;;;;;;;39.80;20.00;;;6.70;99.90;;;;;;4712182;30;20261;-75
2023/03/07 11:37:33;;;;;;;40.33;19.87;;;7.30;99.90;;;;;;4696385;30;20371;-78
2023/03/07 11:40:32;;;;;;;39.17;19.37;;;6.50;99.90;;;;;;4694336;30;20648;-77
2023/03/07 11:43:10;;;;;;;39.33;19.33;;;6.60;99.90;;;;;;4692984;30;20304;-78
2023/03/07 11:45:47;;;;;;;39.00;18.73;;;7.00;99.90;;;;;;4695749;30;20366;-75
2023/03/07 11:48:55;;;;;;;38.47;19.00;;;7.60;99.90;;;;;;4682946;30;20326;-80
2023/03/07 11:51:41;;;;;;;33.97;17.60;;;8.30;99.90;;;;;;4697621;30;20226;-79
2023/03/07 11:54:23;;;;;;;34.43;17.33;;;8.90;99.90;;;;;;4680693;30;20216;-79
2023/03/07 11:56:53;;;;;;;34.00;18.00;;;9.50;99.90;;;;;;4679318;30;20227;-79
2023/03/07 12:00:16;;;;;;;35.70;18.30;;;9.70;99.90;;;;;;4708217;30;20213;-80
2023/03/07 12:03:04;;;;;;;32.57;17.73;;;9.80;99.90;;;;;;4728887;30;20232;-80
2023/03/07 12:05:32;;;;;;;32.40;17.43;;;10.00;99.90;;;;;;4750558;30;20293;-83
2023/03/07 12:08:32;;;;;;;32.83;17.10;;;10.00;99.90;;;;;;4736179;30;20205;-78
2023/03/07 12:11:20;;;;;;;29.93;15.80;;;10.00;99.90;;;;;;4753254;30;20206;-81
2023/03/07 12:14:06;;;;;;;28.70;15.10;;;9.70;99.90;;;;;;4745923;30;20690;-81
2023/03/07 12:16:43;;;;;;;27.67;15.33;;;10.20;99.90;;;;;;4788786;30;20334;-78
2023/03/07 12:19:23;;;;;;;29.63;15.93;;;9.70;99.90;;;;;;4769784;30;20235;-79
2023/03/07 12:22:08;;;;;;;27.97;15.27;;;9.60;99.90;;;;;;4768340;30;20200;-78
2023/03/07 12:25:11;;;;;;;29.47;15.37;;;10.00;99.90;;;;;;4779852;30;20400;-79
2023/03/07 12:27:43;;;;;;;31.43;15.73;;;9.80;99.90;;;;;;4755391;30;20671;-76
2023/03/07 12:30:24;;;;;;;28.60;15.47;;;10.00;99.90;;;;;;4779803;30;20600;-76
2023/03/07 12:32:54;;;;;;;26.33;15.30;;;10.20;99.90;;;;;;4765070;30;20217;-76
2023/03/07 12:35:30;;;;;;;30.23;15.13;;;10.50;99.90;;;;;;4739504;30;20636;-74
2023/03/07 12:37:56;;;;;;;29.13;15.13;;;10.30;99.90;;;;;;4767917;30;20293;-80
2023/03/07 12:41:06;;;;;;;26.70;15.67;;;9.60;99.90;;;;;;4767487;30;20209;-89
2023/03/07 12:43:39;;;;;;;27.70;15.17;;;10.00;99.90;;;;;;4766384;30;20660;-89
2023/03/07 12:46:18;;;;;;;25.70;14.53;;;9.90;99.90;;;;;;4784721;30;20211;-74
2023/03/07 12:49:03;;;;;;;26.27;15.13;;;9.30;99.90;;;;;;4766392;30;20246;-87
2023/03/07 12:51:44;;;;;;;29.90;15.03;;;9.30;99.90;;;;;;4772468;30;20212;-85
2023/03/07 12:54:20;;;;;;;27.77;15.37;;;8.90;99.90;;;;;;4766287;30;20209;-84